Time;durP1;ratioP1;P1;durP2;ratioP2;P2;SDS_P1;SDS_P2;PMS_P1;PMS_P2;Temp;Humidity;BMP_temperature;BMP_pressure;BME280_temperature;BME280_humidity;BME280_pressure;Samples;Min_cycle;Max_cycle;Signal;HPM_P1;HPM_P2
2022/03/13 00:01:49;;;;;;;;;6.50;6.50;;;;;11.47;63.70;100710.75;5021554;28;45285;-65
2022/03/13 00:04:15;;;;;;;;;7.50;7.50;;;;;11.47;63.62;100711.63;5021284;28;45230;-65
2022/03/13 00:06:44;;;;;;;;;8.00;7.75;;;;;11.49;64.12;100716.91;5027342;28;45901;-65
2022/03/13 00:09:14;;;;;;;;;11.00;7.75;;;;;11.54;63.91;100714.06;5029192;28;45460;-65
2022/03/13 00:11:40;;;;;;;;;11.50;8.00;;;;;11.54;63.54;100720.28;5025759;28;45256;-65
2022/03/13 00:14:06;;;;;;;;;3.00;2.00;;;;;11.53;63.66;100721.22;5021253;28;45324;-65
2022/03/13 00:16:32;;;;;;;;;7.00;7.00;;;;;11.55;63.87;100721.19;5030279;28;47082;-65
2022/03/13 00:18:59;;;;;;;;;8.50;7.00;;;;;11.55;63.76;100718.50;5048370;28;45361;-65
2022/03/13 00:21:24;;;;;;;;;6.00;6.00;;;;;11.52;63.21;100718.63;5022559;28;45407;-65
2022/03/13 00:23:50;;;;;;;;;6.00;5.00;;;;;11.49;63.34;100706.22;5021280;28;45425;-65
2022/03/13 00:26:16;;;;;;;;;5.75;5.75;;;;;11.55;63.40;100721.19;5032776;28;45438;-65
2022/03/13 00:28:44;;;;;;;;;9.75;7.50;;;;;11.57;63.40;100719.31;5028929;28;45620;-65
2022/03/13 00:31:10;;;;;;;;;6.75;6.75;;;;;11.61;63.19;100718.25;5053153;28;45302;-65
2022/03/13 00:33:35;;;;;;;;;9.75;6.50;;;;;11.61;63.29;100712.91;5029404;28;45375;-65
2022/03/13 00:36:00;;;;;;;;;5.75;5.75;;;;;11.63;63.06;100717.28;5035359;28;45436;-65
2022/03/13 00:38:26;;;;;;;;;7.00;7.00;;;;;11.70;62.96;100717.06;5030814;28;45465;-65
2022/03/13 00:40:53;;;;;;;;;6.00;5.50;;;;;11.71;62.95;100708.09;5039205;28;45417;-65
2022/03/13 00:43:20;;;;;;;;;5.50;5.50;;;;;11.72;62.92;100713.41;5028459;28;45417;-65
2022/03/13 00:45:45;;;;;;;;;5.50;4.00;;;;;11.73;62.57;100711.56;5044098;28;46355;-65
2022/03/13 00:48:12;;;;;;;;;5.00;3.50;;;;;11.69;62.85;100697.47;5060820;28;45307;-65
2022/03/13 00:50:37;;;;;;;;;6.50;5.75;;;;;11.70;62.30;100693.88;5035588;28;45442;-65
2022/03/13 00:53:03;;;;;;;;;5.00;5.00;;;;;11.64;62.56;100683.41;5020344;28;45295;-65
2022/03/13 00:55:28;;;;;;;;;6.00;6.00;;;;;11.69;62.11;100700.13;5033577;28;46208;-65
2022/03/13 00:57:54;;;;;;;;;6.00;5.25;;;;;11.68;62.51;100696.59;5020613;28;45282;-65
2022/03/13 01:00:20;;;;;;;;;7.50;6.75;;;;;11.65;61.97;100688.69;5020352;28;45319;-65
2022/03/13 01:02:45;;;;;;;;;4.00;4.00;;;;;11.68;62.42;100695.72;5020716;28;45307;-65
2022/03/13 01:05:11;;;;;;;;;3.50;3.50;;;;;11.65;62.21;100685.16;5020365;28;47471;-65
2022/03/13 01:07:38;;;;;;;;;5.50;5.00;;;;;11.65;61.99;100690.50;5028421;28;45572;-65
2022/03/13 01:10:07;;;;;;;;;6.00;5.00;;;;;11.65;62.06;100685.16;5038817;28;45475;-65
2022/03/13 01:12:33;;;;;;;;;6.00;4.75;;;;;11.71;62.16;100687.59;5020321;28;45289;-65
2022/03/13 01:14:59;;;;;;;;;4.00;4.00;;;;;11.73;62.17;100684.84;5025269;28;45476;-65
2022/03/13 01:17:25;;;;;;;;;7.00;4.00;;;;;11.71;61.98;100682.25;5019983;28;45314;-65
2022/03/13 01:19:51;;;;;;;;;4.75;4.50;;;;;11.66;61.81;100671.72;5020328;28;45245;-65
2022/03/13 01:22:16;;;;;;;;;3.50;3.50;;;;;11.74;62.06;100674.09;5020238;28;45558;-65
2022/03/13 01:24:46;;;;;;;;;5.75;4.50;;;;;11.75;61.68;100674.97;5019948;28;46315;-65
2022/03/13 01:27:14;;;;;;;;;3.75;3.75;;;;;11.74;61.59;100673.22;5039551;28;45414;-65
2022/03/13 01:29:41;;;;;;;;;4.50;4.00;;;;;11.71;61.51;100665.31;5036095;28;45338;-65
2022/03/13 01:32:12;;;;;;;;;3.00;3.00;;;;;11.72;61.61;100659.91;5020153;28;45662;-65
2022/03/13 01:34:44;;;;;;;;;5.00;4.00;;;;;11.73;61.25;100667.00;5028226;28;45541;-65
2022/03/13 01:37:29;;;;;;;;;4.00;3.00;;;;;11.68;61.43;100656.50;5027205;28;45772;-65
2022/03/13 01:39:56;;;;;;;;;5.00;5.00;;;;;11.72;61.48;100656.38;5028307;28;45309;-65
2022/03/13 01:42:22;;;;;;;;;4.00;4.00;;;;;11.75;61.28;100656.25;5024528;28;45316;-65
2022/03/13 01:44:48;;;;;;;;;4.50;3.50;;;;;11.77;61.29;100657.94;5029056;28;47213;-65
2022/03/13 01:47:13;;;;;;;;;3.25;3.25;;;;;11.79;61.40;100650.72;5037651;28;45350;-65
2022/03/13 01:49:38;;;;;;;;;4.00;4.00;;;;;11.79;61.10;100655.19;5019983;28;45899;-65
2022/03/13 01:52:04;;;;;;;;;5.75;5.00;;;;;11.81;61.36;100651.53;5019694;28;45349;-65
2022/03/13 01:54:30;;;;;;;;;6.50;5.50;;;;;11.83;60.88;100648.81;5030447;28;45355;-65
2022/03/13 01:56:57;;;;;;;;;4.50;3.50;;;;;11.85;61.22;100650.47;5019570;28;45622;-65
2022/03/13 01:59:22;;;;;;;;;5.00;3.75;;;;;11.85;61.20;100634.44;5019737;28;45411;-65
2022/03/13 02:01:49;;;;;;;;;4.50;4.50;;;;;11.87;61.00;100635.25;5019664;28;45312;-65
2022/03/13 02:04:23;;;;;;;;;4.25;4.25;;;;;11.91;61.13;100640.47;5036497;28;46202;-65
2022/03/13 02:06:50;;;;;;;;;5.00;4.75;;;;;11.92;61.09;100628.88;5019623;28;45213;-65
2022/03/13 02:09:15;;;;;;;;;6.25;4.00;;;;;11.97;61.25;100633.09;5019802;28;45415;-65
2022/03/13 02:11:41;;;;;;;;;4.00;3.50;;;;;11.99;60.89;100628.56;5032756;28;45386;-65
2022/03/13 02:14:10;;;;;;;;;3.75;3.75;;;;;11.98;60.73;100616.13;5019306;28;46358;-65
2022/03/13 02:16:35;;;;;;;;;4.00;4.00;;;;;11.98;60.93;100618.81;5018932;28;45403;-65
2022/03/13 02:19:02;;;;;;;;;4.75;4.00;;;;;11.96;60.54;100617.13;5019511;28;45284;-65
2022/03/13 02:21:31;;;;;;;;;5.00;5.00;;;;;11.97;60.63;100611.72;5019140;28;45287;-65
2022/03/13 02:24:01;;;;;;;;;6.50;5.75;;;;;11.98;60.19;100612.59;5019357;28;45477;-65
2022/03/13 02:26:27;;;;;;;;;3.25;3.00;;;;;11.94;60.37;100600.25;5032590;28;45598;-65
2022/03/13 02:28:55;;;;;;;;;6.00;6.00;;;;;11.91;60.46;100611.97;5026478;28;45378;-65
2022/03/13 02:31:28;;;;;;;;;6.00;5.50;;;;;11.86;60.51;100601.41;5019003;28;45273;-65
2022/03/13 02:33:54;;;;;;;;;5.25;4.50;;;;;11.88;60.72;100601.34;5022114;28;45314;-65
2022/03/13 02:36:32;;;;;;;;;4.75;4.75;;;;;11.87;60.63;100592.44;5020428;28;45681;-65
2022/03/13 02:39:01;;;;;;;;;6.25;5.25;;;;;11.92;60.46;100602.13;5021557;28;45544;-65
2022/03/13 02:41:27;;;;;;;;;9.50;6.75;;;;;11.90;60.48;100588.78;5027395;28;45474;-65
2022/03/13 02:43:53;;;;;;;;;8.25;7.00;;;;;11.91;60.26;100593.25;5024024;28;45664;-65
2022/03/13 02:46:21;;;;;;;;;6.75;4.50;;;;;11.90;60.19;100585.25;5035636;28;45502;-64
2022/03/13 02:48:48;;;;;;;;;7.75;5.75;;;;;11.87;60.07;100588.91;5017979;28;45588;-65
2022/03/13 02:51:14;;;;;;;;;7.75;6.75;;;;;11.83;60.45;100587.31;5016172;28;45654;-65
2022/03/13 02:53:39;;;;;;;;;6.00;6.00;;;;;11.79;60.25;100588.34;5027180;28;45571;-65
2022/03/13 02:56:05;;;;;;;;;10.00;6.00;;;;;11.73;60.10;100584.13;5016758;28;45449;-65
2022/03/13 02:58:32;;;;;;;;;6.25;6.00;;;;;11.68;60.21;100578.09;5016906;28;45386;-65
2022/03/13 03:00:57;;;;;;;;;7.75;7.00;;;;;11.68;60.35;100575.41;5021068;28;45499;-65
2022/03/13 03:03:23;;;;;;;;;6.75;5.75;;;;;11.67;60.58;100581.69;5031510;28;46294;-65
2022/03/13 03:05:50;;;;;;;;;10.00;6.25;;;;;11.74;60.26;100583.16;5029413;28;45687;-65
2022/03/13 03:08:16;;;;;;;;;9.50;7.00;;;;;11.78;60.46;100586.63;5017417;28;45445;-65
2022/03/13 03:10:41;;;;;;;;;6.50;6.00;;;;;11.81;60.06;100578.44;5020111;28;45460;-65
2022/03/13 03:13:11;;;;;;;;;6.75;6.00;;;;;11.80;59.93;100574.91;5020028;28;46126;-65
2022/03/13 03:15:38;;;;;;;;;7.00;7.00;;;;;11.81;60.24;100579.34;5020213;28;45473;-65
2022/03/13 03:18:04;;;;;;;;;9.25;5.25;;;;;11.79;59.91;100572.28;5020458;28;45363;-65
2022/03/13 03:20:30;;;;;;;;;5.75;5.75;;;;;11.80;59.88;100579.41;5020350;28;45453;-65
2022/03/13 03:22:55;;;;;;;;;7.50;7.00;;;;;11.82;60.22;100569.50;5020248;28;45798;-65
2022/03/13 03:25:24;;;;;;;;;5.00;5.00;;;;;11.83;59.87;100579.28;5031092;28;45446;-65
2022/03/13 03:27:51;;;;;;;;;8.00;8.00;;;;;11.81;59.84;100568.63;5035470;28;45429;-65
2022/03/13 03:30:22;;;;;;;;;7.00;6.00;;;;;11.79;59.78;100574.97;5020113;28;45747;-65
2022/03/13 03:32:48;;;;;;;;;6.00;6.00;;;;;11.79;59.85;100581.19;5019739;28;47202;-65
2022/03/13 03:35:16;;;;;;;;;9.00;7.00;;;;;11.76;59.59;100567.06;5034340;28;46073;-65
2022/03/13 03:37:42;;;;;;;;;9.25;9.25;;;;;11.76;59.84;100569.75;5020691;28;45682;-65
2022/03/13 03:40:08;;;;;;;;;7.50;6.50;;;;;11.74;59.31;100572.47;5032704;28;45597;-65
2022/03/13 03:42:35;;;;;;;;;8.50;6.50;;;;;11.71;59.69;100572.63;5020455;28;45386;-65
2022/03/13 03:45:01;;;;;;;;;7.00;7.00;;;;;11.70;59.79;100576.22;5032058;28;45447;-65
2022/03/13 03:47:26;;;;;;;;;10.00;7.50;;;;;11.65;59.48;100565.69;5020393;28;45443;-65
2022/03/13 03:49:51;;;;;;;;;7.75;7.75;;;;;11.70;59.70;100570.00;5019997;28;45459;-65
2022/03/13 03:52:17;;;;;;;;;7.25;6.25;;;;;11.63;59.52;100558.69;5021485;28;45513;-65
2022/03/13 03:54:42;;;;;;;;;6.75;5.75;;;;;11.64;59.52;100563.97;5029028;28;45557;-65
2022/03/13 03:57:07;;;;;;;;;11.00;8.25;;;;;11.63;59.71;100569.38;5019844;28;45473;-65
2022/03/13 03:59:33;;;;;;;;;10.00;6.50;;;;;11.62;59.95;100568.47;5019571;28;45597;-65
2022/03/13 04:01:58;;;;;;;;;10.75;10.00;;;;;11.62;59.43;100571.16;5019619;28;45787;-65
2022/03/13 04:04:23;;;;;;;;;6.75;6.75;;;;;11.62;59.52;100568.47;5019696;28;45396;-65
2022/03/13 04:06:49;;;;;;;;;12.50;10.50;;;;;11.57;59.67;100559.78;5028264;28;45454;-65
2022/03/13 04:09:15;;;;;;;;;7.75;6.75;;;;;11.62;59.88;100551.59;5048770;28;45560;-65
2022/03/13 04:11:40;;;;;;;;;5.75;5.75;;;;;11.60;59.57;100557.00;5021655;28;45396;-65
2022/03/13 04:14:06;;;;;;;;;8.75;6.75;;;;;11.58;59.34;100549.97;5019641;28;45379;-65
2022/03/13 04:16:32;;;;;;;;;8.25;6.00;;;;;11.63;59.52;100567.56;5024055;28;45621;-65
2022/03/13 04:18:57;;;;;;;;;6.25;6.25;;;;;11.63;59.45;100570.25;5028293;28;45359;-65
2022/03/13 04:21:23;;;;;;;;;6.25;6.25;;;;;11.64;59.35;100571.09;5018108;28;45828;-65
2022/03/13 04:23:49;;;;;;;;;7.00;6.00;;;;;11.63;59.39;100566.72;5019378;28;45652;-65
2022/03/13 04:26:15;;;;;;;;;9.75;8.50;;;;;11.61;59.34;100568.53;5031293;28;45449;-65
2022/03/13 04:28:40;;;;;;;;;8.00;6.75;;;;;11.61;58.99;100568.53;5027831;28;45676;-65
2022/03/13 04:31:08;;;;;;;;;6.50;6.50;;;;;11.57;58.90;100565.13;5019073;28;46270;-65
2022/03/13 04:33:36;;;;;;;;;6.25;5.00;;;;;11.61;59.10;100579.22;5019453;28;45779;-65
2022/03/13 04:36:07;;;;;;;;;6.25;6.25;;;;;11.55;59.01;100571.47;5033904;28;45397;-65
2022/03/13 04:38:32;;;;;;;;;6.75;5.50;;;;;11.50;59.12;100575.19;5019034;28;45670;-65
2022/03/13 04:40:57;;;;;;;;;6.25;5.75;;;;;11.50;58.76;100572.50;5032350;28;46031;-65
2022/03/13 04:43:23;;;;;;;;;5.00;5.00;;;;;11.50;58.58;100574.31;5022424;28;45438;-65
2022/03/13 04:45:50;;;;;;;;;6.00;6.00;;;;;11.50;59.06;100571.66;5031335;28;45349;-65
2022/03/13 04:48:17;;;;;;;;;6.00;5.25;;;;;11.50;58.77;100577.84;5032026;28;45723;-65
2022/03/13 04:50:43;;;;;;;;;5.50;4.00;;;;;11.54;58.86;100577.75;5018944;28;46086;-65
2022/03/13 04:53:10;;;;;;;;;4.00;4.00;;;;;11.52;58.52;100571.59;5027580;28;45716;-65
2022/03/13 04:55:35;;;;;;;;;4.50;4.50;;;;;11.54;58.54;100575.06;5020628;28;45450;-65
2022/03/13 04:58:01;;;;;;;;;4.00;4.00;;;;;11.55;58.76;100571.47;5018885;28;45665;-65
2022/03/13 05:00:27;;;;;;;;;5.25;4.00;;;;;11.57;58.72;100570.47;5018203;28;46132;-65
2022/03/13 05:02:54;;;;;;;;;7.50;5.50;;;;;11.56;58.50;100568.75;5018876;28;45714;-65
2022/03/13 05:05:20;;;;;;;;;5.50;5.50;;;;;11.47;58.79;100550.38;5018718;28;45570;-65
2022/03/13 05:07:45;;;;;;;;;4.25;4.00;;;;;11.52;58.65;100556.41;5018539;28;45408;-65
2022/03/13 05:10:11;;;;;;;;;4.00;4.00;;;;;11.56;58.38;100560.72;5018622;28;46115;-65
2022/03/13 05:12:37;;;;;;;;;5.00;3.75;;;;;11.55;58.54;100558.97;5018629;28;45395;-65
2022/03/13 05:15:02;;;;;;;;;4.75;3.00;;;;;11.54;58.72;100554.53;5024022;28;45465;-65
2022/03/13 05:17:28;;;;;;;;;4.25;4.25;;;;;11.58;58.15;100555.31;5026167;28;45552;-65
2022/03/13 05:19:53;;;;;;;;;2.50;2.50;;;;;11.60;57.97;100558.81;5018343;28;45610;-65
2022/03/13 05:22:19;;;;;;;;;3.50;3.50;;;;;11.59;58.10;100549.03;5042600;28;45354;-65
2022/03/13 05:24:44;;;;;;;;;2.00;2.00;;;;;11.56;57.60;100551.81;5034297;28;45521;-65
2022/03/13 05:27:10;;;;;;;;;4.00;2.75;;;;;11.56;58.35;100563.41;5036205;28;45568;-65
2022/03/13 05:29:35;;;;;;;;;5.00;3.25;;;;;11.53;57.98;100550.16;5036661;28;46062;-65
2022/03/13 05:32:00;;;;;;;;;4.00;4.00;;;;;11.54;57.76;100557.22;5025565;28;45469;-65
2022/03/13 05:34:26;;;;;;;;;6.75;4.50;;;;;11.59;57.84;100562.38;5025772;28;45882;-65
2022/03/13 05:36:51;;;;;;;;;3.00;3.00;;;;;11.60;57.68;100569.50;5026036;28;45450;-65
2022/03/13 05:39:16;;;;;;;;;3.25;3.00;;;;;11.57;57.75;100570.47;5023550;28;46016;-64
2022/03/13 05:41:42;;;;;;;;;3.00;3.00;;;;;11.57;57.63;100569.59;5026094;28;45624;-64
2022/03/13 05:44:09;;;;;;;;;2.50;2.50;;;;;11.55;57.57;100567.00;5023961;28;45566;-65
2022/03/13 05:46:35;;;;;;;;;2.50;2.50;;;;;11.54;57.41;100567.06;5024703;28;45416;-65
2022/03/13 05:49:00;;;;;;;;;3.50;3.50;;;;;11.56;57.65;100574.09;5017958;28;46264;-65
2022/03/13 05:51:26;;;;;;;;;2.75;2.75;;;;;11.57;57.60;100569.59;5017999;28;45625;-64
2022/03/13 05:53:51;;;;;;;;;2.00;2.00;;;;;11.58;57.33;100579.38;5029108;28;45407;-65
2022/03/13 05:56:16;;;;;;;;;4.00;3.75;;;;;11.57;57.47;100574.94;5038849;28;45829;-65
2022/03/13 05:58:42;;;;;;;;;3.00;3.00;;;;;11.54;57.06;100573.25;5036730;28;46584;-65
2022/03/13 06:01:08;;;;;;;;;2.50;1.50;;;;;11.47;57.55;100572.63;5017784;28;45560;-65
2022/03/13 06:03:34;;;;;;;;;2.00;2.00;;;;;11.47;57.14;100583.31;5017973;28;45628;-65
2022/03/13 06:06:02;;;;;;;;;4.75;2.00;;;;;11.47;57.50;100591.34;5017810;28;45539;-65
2022/03/13 06:08:27;;;;;;;;;3.00;2.00;;;;;11.39;57.00;100582.75;5017947;28;46084;-65
2022/03/13 06:10:53;;;;;;;;;1.75;1.75;;;;;11.38;57.44;100591.72;5017805;28;45435;-65
2022/03/13 06:13:19;;;;;;;;;2.00;2.00;;;;;11.31;57.44;100576.84;5017951;28;45450;-65
2022/03/13 06:15:45;;;;;;;;;3.00;3.00;;;;;11.41;57.27;100588.03;5025997;28;45443;-65
2022/03/13 06:18:12;;;;;;;;;4.00;2.00;;;;;11.41;57.69;100591.59;5048302;28;46510;-65
2022/03/13 06:20:37;;;;;;;;;2.50;2.50;;;;;11.42;57.26;100597.81;5026449;28;45403;-65
2022/03/13 06:23:03;;;;;;;;;2.75;2.00;;;;;11.40;57.35;100592.50;5017651;28;46043;-65
2022/03/13 06:25:29;;;;;;;;;2.50;2.50;;;;;11.39;57.29;100587.22;5023043;28;45348;-65
2022/03/13 06:27:56;;;;;;;;;4.00;4.00;;;;;11.43;57.32;100594.22;5022769;28;46547;-65
2022/03/13 06:30:21;;;;;;;;;2.50;2.00;;;;;11.47;57.26;100602.03;5037130;28;45670;-65
2022/03/13 06:32:49;;;;;;;;;2.25;2.25;;;;;11.43;57.29;100595.06;5020192;28;45565;-65
2022/03/13 06:35:17;;;;;;;;;4.00;3.00;;;;;11.42;57.61;100598.66;5019924;28;45474;-65
2022/03/13 06:37:43;;;;;;;;;4.50;3.50;;;;;11.35;57.09;100601.66;5017241;28;45404;-65
2022/03/13 06:40:10;;;;;;;;;3.25;3.00;;;;;11.38;57.42;100602.41;5017138;28;45849;-65
2022/03/13 06:42:36;;;;;;;;;2.25;2.25;;;;;11.35;57.33;100601.66;5035484;28;45400;-65
2022/03/13 06:45:03;;;;;;;;;4.00;4.00;;;;;11.34;57.39;100611.44;5027513;28;45590;-65
2022/03/13 06:47:28;;;;;;;;;2.25;2.25;;;;;11.30;57.39;100607.16;5038867;28;47135;-65
2022/03/13 06:49:53;;;;;;;;;4.25;2.00;;;;;11.28;57.42;100604.53;5027670;28;45749;-65
2022/03/13 06:52:19;;;;;;;;;2.75;2.75;;;;;11.26;57.18;100605.50;5020708;28;45626;-65
2022/03/13 06:54:45;;;;;;;;;2.00;2.00;;;;;11.28;57.14;100606.34;5020841;28;45388;-65
2022/03/13 06:57:13;;;;;;;;;2.00;2.00;;;;;11.30;57.39;100609.84;5039005;28;45331;-65
2022/03/13 06:59:39;;;;;;;;;5.00;3.50;;;;;11.29;56.90;100611.63;5040301;28;45717;-65
2022/03/13 07:02:04;;;;;;;;;3.00;3.00;;;;;11.29;57.31;100606.28;5040466;28;45508;-65
2022/03/13 07:04:29;;;;;;;;;2.00;2.00;;;;;11.32;57.28;100605.28;5033642;28;45437;-65
2022/03/13 07:06:55;;;;;;;;;5.25;4.00;;;;;11.34;57.31;100610.59;5039638;28;46079;-65
2022/03/13 07:09:20;;;;;;;;;4.00;3.00;;;;;11.33;57.12;100609.72;5040585;28;45471;-65
2022/03/13 07:11:49;;;;;;;;;4.00;3.00;;;;;11.33;56.68;100601.69;5040333;28;45511;-65
2022/03/13 07:14:18;;;;;;;;;5.75;3.50;;;;;11.34;57.24;100606.09;5038750;28;45496;-65
2022/03/13 07:16:44;;;;;;;;;3.00;3.00;;;;;11.36;57.21;100609.59;5040017;28;47373;-65
2022/03/13 07:19:09;;;;;;;;;3.00;3.00;;;;;11.37;57.42;100611.34;5040140;28;45309;-65
2022/03/13 07:21:34;;;;;;;;;2.75;2.75;;;;;11.38;57.42;100607.75;5040336;28;45934;-65
2022/03/13 07:24:00;;;;;;;;;2.25;2.25;;;;;11.39;57.16;100598.78;5040169;28;45434;-66
2022/03/13 07:26:25;;;;;;;;;3.75;2.00;;;;;11.43;57.22;100597.75;5035082;28;45411;-66
2022/03/13 07:28:50;;;;;;;;;3.50;3.50;;;;;11.47;57.03;100598.50;5022439;28;45395;-66
2022/03/13 07:31:16;;;;;;;;;3.00;3.00;;;;;11.46;56.97;100594.97;5035000;28;45515;-66
2022/03/13 07:33:41;;;;;;;;;4.50;4.50;;;;;11.48;56.78;100589.56;5023689;28;45541;-66
2022/03/13 07:36:06;;;;;;;;;2.00;2.00;;;;;11.55;57.09;100596.41;5034950;28;45379;-66
2022/03/13 07:38:32;;;;;;;;;4.75;3.50;;;;;11.58;56.74;100596.28;5035346;28;45344;-66
2022/03/13 07:40:57;;;;;;;;;3.00;3.00;;;;;11.56;56.87;100591.91;5020134;28;45528;-66
2022/03/13 07:43:22;;;;;;;;;1.75;1.00;;;;;11.59;56.65;100599.81;5031659;28;45634;-66
2022/03/13 07:45:49;;;;;;;;;2.25;2.25;;;;;11.59;56.56;100610.50;5025652;28;45436;-65
2022/03/13 07:48:15;;;;;;;;;2.00;2.00;;;;;11.57;56.59;100605.22;5035216;28;45368;-65
2022/03/13 07:50:41;;;;;;;;;2.75;2.75;;;;;11.62;56.18;100605.91;5026301;28;45695;-65
2022/03/13 07:53:06;;;;;;;;;2.00;2.00;;;;;11.64;55.63;100603.19;5022682;28;45450;-66
2022/03/13 07:55:32;;;;;;;;;2.25;2.25;;;;;11.56;56.05;100598.16;5026038;28;45963;-66
2022/03/13 07:57:57;;;;;;;;;2.50;1.75;;;;;11.60;56.10;100605.09;5019604;28;45556;-65
2022/03/13 08:00:23;;;;;;;;;1.75;1.50;;;;;11.57;56.06;100605.22;5019953;28;45371;-66
2022/03/13 08:02:49;;;;;;;;;2.00;2.00;;;;;11.57;55.83;100597.19;5022167;28;45360;-67
2022/03/13 08:05:18;;;;;;;;;2.25;2.25;;;;;11.62;55.83;100605.91;5019421;28;46568;-66
2022/03/13 08:07:44;;;;;;;;;2.75;2.75;;;;;11.64;55.95;100608.53;5022809;28;45618;-66
2022/03/13 08:10:10;;;;;;;;;0.50;0.50;;;;;11.63;55.99;100605.00;5029412;28;45454;-65
2022/03/13 08:12:38;;;;;;;;;3.00;2.75;;;;;11.65;55.69;100596.91;5019529;28;45404;-66
2022/03/13 08:15:07;;;;;;;;;3.00;3.00;;;;;11.65;55.88;100595.09;5022545;28;47309;-65
2022/03/13 08:17:34;;;;;;;;;3.75;2.00;;;;;11.66;56.04;100591.50;5019868;28;45494;-66
2022/03/13 08:19:59;;;;;;;;;2.00;2.00;;;;;11.69;55.70;100590.50;5032638;28;45451;-66
2022/03/13 08:22:25;;;;;;;;;2.50;2.00;;;;;11.72;55.98;100590.38;5028722;28;45417;-65
2022/03/13 08:24:50;;;;;;;;;4.00;2.25;;;;;11.74;55.93;100596.53;5030138;28;45381;-65
2022/03/13 08:27:16;;;;;;;;;4.00;4.00;;;;;11.76;55.61;100585.78;5039190;28;45421;-65
2022/03/13 08:29:42;;;;;;;;;1.25;1.25;;;;;11.78;55.61;100595.50;5019715;28;45617;-64
2022/03/13 08:32:08;;;;;;;;;2.25;2.25;;;;;11.75;55.52;100571.56;5020217;28;46365;-64
2022/03/13 08:34:39;;;;;;;;;2.50;2.50;;;;;11.79;55.35;100581.19;5028333;28;46008;-65
2022/03/13 08:37:04;;;;;;;;;3.00;2.25;;;;;11.86;55.78;100588.03;5031386;28;45454;-64
2022/03/13 08:39:34;;;;;;;;;2.25;2.25;;;;;11.86;55.96;100579.13;5019244;28;45434;-64
2022/03/13 08:42:00;;;;;;;;;2.25;2.00;;;;;11.92;55.73;100583.41;5032128;28;45846;-65
2022/03/13 08:44:25;;;;;;;;;2.50;2.50;;;;;11.96;55.36;100590.38;5031036;28;46086;-65
2022/03/13 08:46:50;;;;;;;;;1.50;1.50;;;;;11.97;55.30;100584.97;5025359;28;45660;-65
2022/03/13 08:49:16;;;;;;;;;3.50;2.25;;;;;11.94;54.95;100587.75;5035310;28;45493;-64
2022/03/13 08:51:42;;;;;;;;;2.00;2.00;;;;;11.97;55.14;100582.28;5024456;28;45536;-64
2022/03/13 08:54:08;;;;;;;;;1.00;1.00;;;;;12.01;55.30;100585.69;5030657;28;45613;-64
2022/03/13 08:56:35;;;;;;;;;2.00;2.00;;;;;12.01;54.87;100586.59;5020318;28;45682;-64
2022/03/13 08:59:02;;;;;;;;;3.00;3.00;;;;;12.05;55.20;100581.97;5027448;28;45580;-64
2022/03/13 09:01:27;;;;;;;;;1.50;1.50;;;;;12.09;54.80;100582.72;5031801;28;45359;-64
2022/03/13 09:03:53;;;;;;;;;1.00;1.00;;;;;12.14;54.34;100586.94;5030531;28;45428;-65
2022/03/13 09:06:19;;;;;;;;;3.00;1.00;;;;;12.17;54.60;100592.16;5020790;28;45204;-64
2022/03/13 09:08:44;;;;;;;;;1.50;1.50;;;;;12.18;54.30;100593.06;5033283;28;45414;-65
2022/03/13 09:11:11;;;;;;;;;3.00;2.00;;;;;12.24;54.75;100590.09;5021497;28;45469;-64
2022/03/13 09:13:37;;;;;;;;;2.00;2.00;;;;;12.29;54.38;100585.44;5028546;28;45599;-65
2022/03/13 09:16:03;;;;;;;;;2.25;1.25;;;;;12.33;54.30;100591.50;5017543;28;45447;-65
2022/03/13 09:18:30;;;;;;;;;2.00;1.00;;;;;12.36;54.70;100594.06;5013864;28;45539;-65
2022/03/13 09:20:56;;;;;;;;;1.00;1.00;;;;;12.39;54.34;100584.09;5029655;28;45897;-65
2022/03/13 09:23:21;;;;;;;;;1.00;1.00;;;;;12.44;53.77;100591.09;5028592;28;45351;-65
2022/03/13 09:25:47;;;;;;;;;1.00;1.00;;;;;12.44;53.68;100575.03;5026381;28;45649;-65
2022/03/13 09:28:12;;;;;;;;;1.00;1.00;;;;;12.51;53.56;100585.41;5033561;28;45350;-65
2022/03/13 09:30:39;;;;;;;;;1.50;1.50;;;;;12.56;53.72;100582.50;5024303;28;45330;-65
2022/03/13 09:33:04;;;;;;;;;1.00;1.00;;;;;12.59;53.85;100587.75;5030750;28;46149;-65
2022/03/13 09:35:30;;;;;;;;;2.75;1.00;;;;;12.63;53.53;100593.81;5024467;28;45437;-65
2022/03/13 09:37:55;;;;;;;;;1.00;1.00;;;;;12.67;53.46;100598.13;5045744;28;45343;-65
2022/03/13 09:40:21;;;;;;;;;1.00;1.00;;;;;12.69;53.36;100607.81;5027825;28;45291;-65
2022/03/13 09:42:47;;;;;;;;;2.00;2.00;;;;;12.70;53.37;100596.19;5021750;28;45386;-65
2022/03/13 09:45:14;;;;;;;;;1.00;1.00;;;;;12.71;53.09;100587.22;5045043;28;45311;-65
2022/03/13 09:47:40;;;;;;;;;1.00;1.00;;;;;12.75;53.10;100583.47;5040783;28;45631;-65
2022/03/13 09:50:07;;;;;;;;;1.00;1.00;;;;;12.77;53.14;100591.44;5049423;28;45310;-68
2022/03/13 09:52:33;;;;;;;;;0.75;0.75;;;;;12.83;53.08;100592.94;5026487;28;45636;-65
2022/03/13 09:55:00;;;;;;;;;1.50;1.50;;;;;12.85;52.81;100586.59;5035642;28;45315;-65
2022/03/13 09:57:25;;;;;;;;;0.50;0.50;;;;;12.91;53.24;100590.81;5028162;28;45607;-65
2022/03/13 09:59:51;;;;;;;;;2.00;2.00;;;;;12.90;53.27;100594.44;5027260;28;45743;-65
2022/03/13 10:02:17;;;;;;;;;1.00;1.00;;;;;12.94;52.97;100596.91;5026134;28;45511;-65
2022/03/13 10:04:42;;;;;;;;;1.00;1.00;;;;;12.98;52.82;100590.47;5029565;28;45410;-64
2022/03/13 10:07:10;;;;;;;;;3.00;2.00;;;;;13.00;52.79;100590.41;5025749;28;45489;-64
2022/03/13 10:09:38;;;;;;;;;0.75;0.75;;;;;13.03;52.58;100592.06;5030316;28;45492;-64
2022/03/13 10:12:09;;;;;;;;;1.00;1.00;;;;;13.06;52.51;100584.75;5031193;28;46114;-64
2022/03/13 10:14:38;;;;;;;;;1.00;1.00;;;;;13.05;52.35;100588.41;5025804;28;45520;-65
2022/03/13 10:17:23;;;;;;;;;1.00;1.00;;;;;13.04;52.50;100583.09;5030943;28;45467;-67
2022/03/13 10:19:48;;;;;;;;;2.00;2.00;;;;;13.07;52.65;100581.16;5023081;28;45631;-65
2022/03/13 10:22:14;;;;;;;;;1.00;1.00;;;;;13.06;52.31;100582.06;5028615;28;46215;-65
2022/03/13 10:24:42;;;;;;;;;2.00;2.00;;;;;13.11;52.36;100592.59;5028959;28;45435;-65
2022/03/13 10:27:19;;;;;;;;;2.50;2.50;;;;;13.11;52.53;100585.44;5034528;28;45299;-65
2022/03/13 10:29:47;;;;;;;;;2.00;2.00;;;;;13.12;52.26;100580.94;5035171;28;45303;-64
2022/03/13 10:32:16;;;;;;;;;1.75;1.75;;;;;13.09;52.26;100565.00;5030156;28;45993;-63
2022/03/13 10:34:53;;;;;;;;;1.00;1.00;;;;;13.11;52.82;100571.16;5037324;28;45619;-64
2022/03/13 10:37:35;;;;;;;;;3.50;2.00;;;;;13.14;52.56;100571.88;5033517;28;45323;-63
2022/03/13 10:40:10;;;;;;;;;1.50;1.00;;;;;13.14;52.33;100569.19;5024821;28;45396;-63
2022/03/13 10:42:46;;;;;;;;;2.00;2.00;;;;;13.13;52.46;100561.22;5031756;28;45479;-64
2022/03/13 10:45:37;;;;;;;;;2.00;2.00;;;;;13.16;52.43;100567.34;5041382;28;45366;-65
2022/03/13 10:48:36;;;;;;;;;2.00;2.00;;;;;13.16;52.48;100556.63;5029672;28;45327;-66
2022/03/13 10:51:03;;;;;;;;;1.00;1.00;;;;;13.15;52.12;100565.59;5024443;28;45387;-67
2022/03/13 10:53:30;;;;;;;;;2.00;1.00;;;;;13.16;52.16;100555.72;5034319;28;45500;-64
2022/03/13 10:56:11;;;;;;;;;3.75;3.75;;;;;13.17;52.54;100549.44;5035256;28;45500;-63
2022/03/13 10:58:41;;;;;;;;;2.00;2.00;;;;;13.20;52.08;100561.81;5029347;28;45474;-63
2022/03/13 11:01:10;;;;;;;;;2.00;2.00;;;;;13.20;52.21;100557.34;5032638;28;45407;-63
2022/03/13 11:03:37;;;;;;;;;1.25;1.25;;;;;13.23;52.14;100570.63;5031826;28;45995;-63
2022/03/13 11:06:04;;;;;;;;;2.50;2.50;;;;;13.24;52.36;100572.34;5028381;28;45434;-63
2022/03/13 11:08:30;;;;;;;;;3.00;2.50;;;;;13.24;52.24;100564.28;5035472;28;45247;-61
2022/03/13 11:10:57;;;;;;;;;3.50;3.50;;;;;13.25;52.36;100563.38;5034798;28;45756;-61
2022/03/13 11:13:28;;;;;;;;;1.00;1.00;;;;;13.29;52.31;100564.94;5029938;28;46225;-63
2022/03/13 11:15:56;;;;;;;;;2.00;2.00;;;;;13.31;52.20;100565.75;5024535;28;45485;-63
2022/03/13 11:18:32;;;;;;;;;2.75;2.75;;;;;13.34;52.21;100572.81;5029668;28;45295;-63
2022/03/13 11:20:59;;;;;;;;;2.00;2.00;;;;;13.38;52.24;100573.53;5022237;28;45248;-60
2022/03/13 11:23:24;;;;;;;;;3.50;3.50;;;;;13.38;52.30;100576.22;5021818;28;46361;-62